sensor_id;sensor_type;location;lat;lon;timestamp;P1;durP1;ratioP1;P2;durP2;ratioP2
53875;SDS011;39789;53.216;5.624;2023-03-29T00:01:49;11.70;;;7.10;;
53875;SDS011;39789;53.216;5.624;2023-03-29T00:04:15;9.38;;;7.03;;
53875;SDS011;39789;53.216;5.624;2023-03-29T00:06:43;9.90;;;7.00;;
53875;SDS011;39789;53.216;5.624;2023-03-29T00:09:17;10.95;;;6.90;;
53875;SDS011;39789;53.216;5.624;2023-03-29T00:11:44;12.13;;;6.78;;
53875;SDS011;39789;53.216;5.624;2023-03-29T00:14:10;10.55;;;6.97;;
53875;SDS011;39789;53.216;5.624;2023-03-29T00:16:36;9.45;;;6.25;;
53875;SDS011;39789;53.216;5.624;2023-03-29T00:19:02;8.13;;;5.97;;
53875;SDS011;39789;53.216;5.624;2023-03-29T00:21:28;8.07;;;6.75;;
53875;SDS011;39789;53.216;5.624;2023-03-29T00:23:55;6.78;;;5.25;;
53875;SDS011;39789;53.216;5.624;2023-03-29T00:26:21;7.03;;;6.07;;
53875;SDS011;39789;53.216;5.624;2023-03-29T00:28:47;9.43;;;5.63;;
53875;SDS011;39789;53.216;5.624;2023-03-29T00:31:13;7.93;;;5.82;;
53875;SDS011;39789;53.216;5.624;2023-03-29T00:33:41;7.60;;;5.70;;
53875;SDS011;39789;53.216;5.624;2023-03-29T00:36:07;8.98;;;5.93;;
53875;SDS011;39789;53.216;5.624;2023-03-29T00:38:34;8.60;;;5.93;;
53875;SDS011;39789;53.216;5.624;2023-03-29T00:41:00;7.80;;;5.53;;
53875;SDS011;39789;53.216;5.624;2023-03-29T00:43:26;10.30;;;5.82;;
53875;SDS011;39789;53.216;5.624;2023-03-29T00:45:51;8.23;;;5.80;;
53875;SDS011;39789;53.216;5.624;2023-03-29T00:48:19;6.18;;;4.90;;
53875;SDS011;39789;53.216;5.624;2023-03-29T00:51:04;7.22;;;5.78;;
53875;SDS011;39789;53.216;5.624;2023-03-29T00:53:34;8.55;;;5.80;;
53875;SDS011;39789;53.216;5.624;2023-03-29T00:56:04;8.75;;;5.25;;
53875;SDS011;39789;53.216;5.624;2023-03-29T00:58:41;7.75;;;5.63;;
53875;SDS011;39789;53.216;5.624;2023-03-29T01:01:13;8.25;;;5.30;;
53875;SDS011;39789;53.216;5.624;2023-03-29T01:03:54;7.20;;;5.40;;
53875;SDS011;39789;53.216;5.624;2023-03-29T01:06:25;6.07;;;4.72;;
53875;SDS011;39789;53.216;5.624;2023-03-29T01:08:54;6.22;;;4.65;;
53875;SDS011;39789;53.216;5.624;2023-03-29T01:14:06;7.55;;;4.78;;
53875;SDS011;39789;53.216;5.624;2023-03-29T01:16:39;6.50;;;4.80;;
53875;SDS011;39789;53.216;5.624;2023-03-29T01:19:06;8.80;;;5.10;;
53875;SDS011;39789;53.216;5.624;2023-03-29T01:24:23;8.43;;;4.75;;
53875;SDS011;39789;53.216;5.624;2023-03-29T01:27:18;9.45;;;5.20;;
53875;SDS011;39789;53.216;5.624;2023-03-29T01:29:59;7.45;;;5.13;;
53875;SDS011;39789;53.216;5.624;2023-03-29T01:32:30;7.95;;;5.15;;
53875;SDS011;39789;53.216;5.624;2023-03-29T01:35:05;6.47;;;4.50;;
53875;SDS011;39789;53.216;5.624;2023-03-29T01:37:38;7.22;;;4.80;;
53875;SDS011;39789;53.216;5.624;2023-03-29T01:40:07;8.13;;;4.68;;
53875;SDS011;39789;53.216;5.624;2023-03-29T01:47:54;7.15;;;4.65;;
53875;SDS011;39789;53.216;5.624;2023-03-29T01:53:16;8.40;;;5.32;;
53875;SDS011;39789;53.216;5.624;2023-03-29T01:55:52;7.03;;;5.05;;
53875;SDS011;39789;53.216;5.624;2023-03-29T01:58:24;6.88;;;4.35;;
53875;SDS011;39789;53.216;5.624;2023-03-29T02:00:55;8.88;;;5.10;;
53875;SDS011;39789;53.216;5.624;2023-03-29T02:03:25;7.45;;;4.57;;
53875;SDS011;39789;53.216;5.624;2023-03-29T02:05:54;8.45;;;4.85;;
53875;SDS011;39789;53.216;5.624;2023-03-29T02:08:23;7.03;;;5.13;;
53875;SDS011;39789;53.216;5.624;2023-03-29T02:10:50;9.15;;;4.50;;
53875;SDS011;39789;53.216;5.624;2023-03-29T02:13:16;8.48;;;4.75;;
53875;SDS011;39789;53.216;5.624;2023-03-29T02:15:43;6.97;;;4.32;;
53875;SDS011;39789;53.216;5.624;2023-03-29T02:18:10;6.05;;;4.72;;
53875;SDS011;39789;53.216;5.624;2023-03-29T02:20:38;6.80;;;4.40;;
53875;SDS011;39789;53.216;5.624;2023-03-29T02:23:11;6.75;;;4.25;;
53875;SDS011;39789;53.216;5.624;2023-03-29T02:25:42;7.47;;;4.50;;
53875;SDS011;39789;53.216;5.624;2023-03-29T02:28:12;6.45;;;3.97;;
53875;SDS011;39789;53.216;5.624;2023-03-29T02:33:30;9.95;;;4.60;;
53875;SDS011;39789;53.216;5.624;2023-03-29T02:36:05;9.02;;;4.55;;
53875;SDS011;39789;53.216;5.624;2023-03-29T02:38:45;7.18;;;4.47;;
53875;SDS011;39789;53.216;5.624;2023-03-29T02:41:11;7.93;;;4.18;;
53875;SDS011;39789;53.216;5.624;2023-03-29T02:43:38;7.55;;;4.05;;
53875;SDS011;39789;53.216;5.624;2023-03-29T02:46:04;6.90;;;4.50;;
53875;SDS011;39789;53.216;5.624;2023-03-29T02:48:31;6.60;;;4.82;;
53875;SDS011;39789;53.216;5.624;2023-03-29T02:51:02;9.73;;;4.55;;
53875;SDS011;39789;53.216;5.624;2023-03-29T02:53:34;7.35;;;4.20;;
53875;SDS011;39789;53.216;5.624;2023-03-29T02:56:08;6.45;;;4.05;;
53875;SDS011;39789;53.216;5.624;2023-03-29T02:58:34;6.50;;;3.97;;
53875;SDS011;39789;53.216;5.624;2023-03-29T03:01:00;5.78;;;4.32;;
53875;SDS011;39789;53.216;5.624;2023-03-29T03:03:34;10.45;;;4.55;;
53875;SDS011;39789;53.216;5.624;2023-03-29T03:06:00;7.60;;;4.18;;
53875;SDS011;39789;53.216;5.624;2023-03-29T03:08:26;6.13;;;3.72;;
53875;SDS011;39789;53.216;5.624;2023-03-29T03:10:52;5.95;;;3.60;;
53875;SDS011;39789;53.216;5.624;2023-03-29T03:13:19;6.72;;;4.32;;
53875;SDS011;39789;53.216;5.624;2023-03-29T03:15:45;6.30;;;4.22;;
53875;SDS011;39789;53.216;5.624;2023-03-29T03:18:13;6.82;;;4.47;;
53875;SDS011;39789;53.216;5.624;2023-03-29T03:20:40;10.73;;;4.50;;
53875;SDS011;39789;53.216;5.624;2023-03-29T03:23:06;6.22;;;4.22;;
53875;SDS011;39789;53.216;5.624;2023-03-29T03:25:36;5.25;;;3.90;;
53875;SDS011;39789;53.216;5.624;2023-03-29T03:28:03;6.95;;;3.90;;
53875;SDS011;39789;53.216;5.624;2023-03-29T03:30:29;6.13;;;4.05;;
53875;SDS011;39789;53.216;5.624;2023-03-29T03:32:56;7.93;;;4.43;;
53875;SDS011;39789;53.216;5.624;2023-03-29T03:35:22;6.03;;;4.25;;
53875;SDS011;39789;53.216;5.624;2023-03-29T03:37:56;6.85;;;4.32;;
53875;SDS011;39789;53.216;5.624;2023-03-29T03:40:24;5.78;;;3.92;;
53875;SDS011;39789;53.216;5.624;2023-03-29T03:42:50;9.77;;;4.63;;
53875;SDS011;39789;53.216;5.624;2023-03-29T03:45:16;7.22;;;4.97;;
53875;SDS011;39789;53.216;5.624;2023-03-29T03:47:43;6.10;;;4.78;;
53875;SDS011;39789;53.216;5.624;2023-03-29T03:50:09;6.82;;;5.13;;
53875;SDS011;39789;53.216;5.624;2023-03-29T03:52:35;9.60;;;5.32;;
53875;SDS011;39789;53.216;5.624;2023-03-29T03:55:01;10.63;;;5.57;;
53875;SDS011;39789;53.216;5.624;2023-03-29T03:57:27;8.88;;;5.43;;
53875;SDS011;39789;53.216;5.624;2023-03-29T03:59:54;8.85;;;5.65;;
53875;SDS011;39789;53.216;5.624;2023-03-29T04:02:21;9.48;;;5.60;;
53875;SDS011;39789;53.216;5.624;2023-03-29T04:04:47;11.57;;;6.38;;
53875;SDS011;39789;53.216;5.624;2023-03-29T04:07:13;10.20;;;6.55;;
53875;SDS011;39789;53.216;5.624;2023-03-29T04:09:41;10.52;;;7.07;;
53875;SDS011;39789;53.216;5.624;2023-03-29T04:12:08;9.07;;;6.75;;
53875;SDS011;39789;53.216;5.624;2023-03-29T04:14:37;10.57;;;6.93;;
53875;SDS011;39789;53.216;5.624;2023-03-29T04:17:03;11.73;;;7.32;;
53875;SDS011;39789;53.216;5.624;2023-03-29T04:19:28;12.30;;;7.40;;
53875;SDS011;39789;53.216;5.624;2023-03-29T04:21:54;11.98;;;7.88;;
53875;SDS011;39789;53.216;5.624;2023-03-29T04:24:23;11.43;;;7.38;;
53875;SDS011;39789;53.216;5.624;2023-03-29T04:26:49;13.40;;;8.00;;
53875;SDS011;39789;53.216;5.624;2023-03-29T04:29:14;10.93;;;8.10;;
53875;SDS011;39789;53.216;5.624;2023-03-29T04:31:42;12.27;;;8.32;;
53875;SDS011;39789;53.216;5.624;2023-03-29T04:34:07;12.60;;;8.25;;
53875;SDS011;39789;53.216;5.624;2023-03-29T04:36:34;10.70;;;8.43;;
53875;SDS011;39789;53.216;5.624;2023-03-29T04:39:00;12.52;;;9.05;;
53875;SDS011;39789;53.216;5.624;2023-03-29T04:41:26;15.18;;;8.65;;
53875;SDS011;39789;53.216;5.624;2023-03-29T04:43:53;14.73;;;9.18;;
53875;SDS011;39789;53.216;5.624;2023-03-29T04:46:20;13.55;;;8.95;;
53875;SDS011;39789;53.216;5.624;2023-03-29T04:48:50;12.77;;;9.40;;
53875;SDS011;39789;53.216;5.624;2023-03-29T04:51:16;14.43;;;9.80;;
53875;SDS011;39789;53.216;5.624;2023-03-29T04:53:42;15.27;;;9.95;;
53875;SDS011;39789;53.216;5.624;2023-03-29T04:56:08;17.00;;;10.02;;
53875;SDS011;39789;53.216;5.624;2023-03-29T04:58:33;15.23;;;10.25;;
53875;SDS011;39789;53.216;5.624;2023-03-29T05:01:02;15.25;;;10.25;;
53875;SDS011;39789;53.216;5.624;2023-03-29T05:03:28;15.82;;;10.65;;
53875;SDS011;39789;53.216;5.624;2023-03-29T05:05:55;20.10;;;11.45;;
53875;SDS011;39789;53.216;5.624;2023-03-29T05:08:34;16.52;;;11.13;;
53875;SDS011;39789;53.216;5.624;2023-03-29T05:11:07;15.50;;;11.10;;
53875;SDS011;39789;53.216;5.624;2023-03-29T05:13:34;15.02;;;11.27;;
53875;SDS011;39789;53.216;5.624;2023-03-29T05:16:00;15.23;;;10.13;;
53875;SDS011;39789;53.216;5.624;2023-03-29T05:18:28;18.60;;;11.52;;
53875;SDS011;39789;53.216;5.624;2023-03-29T05:20:56;17.13;;;11.00;;
53875;SDS011;39789;53.216;5.624;2023-03-29T05:23:22;15.82;;;11.05;;
53875;SDS011;39789;53.216;5.624;2023-03-29T05:25:49;16.42;;;11.02;;
53875;SDS011;39789;53.216;5.624;2023-03-29T05:28:17;16.85;;;11.30;;
53875;SDS011;39789;53.216;5.624;2023-03-29T05:30:44;14.40;;;10.95;;
53875;SDS011;39789;53.216;5.624;2023-03-29T05:33:11;16.65;;;11.65;;
53875;SDS011;39789;53.216;5.624;2023-03-29T05:35:37;13.27;;;11.20;;
53875;SDS011;39789;53.216;5.624;2023-03-29T05:38:03;13.50;;;9.90;;
53875;SDS011;39789;53.216;5.624;2023-03-29T05:40:29;15.68;;;11.30;;
53875;SDS011;39789;53.216;5.624;2023-03-29T05:42:56;21.90;;;12.25;;
53875;SDS011;39789;53.216;5.624;2023-03-29T05:45:22;16.10;;;10.57;;
53875;SDS011;39789;53.216;5.624;2023-03-29T05:47:51;15.95;;;11.32;;
53875;SDS011;39789;53.216;5.624;2023-03-29T05:50:17;17.55;;;11.82;;
53875;SDS011;39789;53.216;5.624;2023-03-29T05:52:48;14.05;;;10.73;;
53875;SDS011;39789;53.216;5.624;2023-03-29T05:55:13;16.52;;;11.00;;
53875;SDS011;39789;53.216;5.624;2023-03-29T05:57:39;15.93;;;11.13;;
53875;SDS011;39789;53.216;5.624;2023-03-29T06:00:05;14.40;;;10.55;;
53875;SDS011;39789;53.216;5.624;2023-03-29T06:02:51;15.05;;;11.10;;
53875;SDS011;39789;53.216;5.624;2023-03-29T06:05:18;18.60;;;10.73;;
53875;SDS011;39789;53.216;5.624;2023-03-29T06:07:47;15.05;;;11.20;;
53875;SDS011;39789;53.216;5.624;2023-03-29T06:10:13;14.27;;;9.85;;
53875;SDS011;39789;53.216;5.624;2023-03-29T06:12:40;17.02;;;11.65;;
53875;SDS011;39789;53.216;5.624;2023-03-29T06:15:06;14.10;;;10.27;;
53875;SDS011;39789;53.216;5.624;2023-03-29T06:17:32;15.38;;;10.52;;
53875;SDS011;39789;53.216;5.624;2023-03-29T06:19:59;14.13;;;9.85;;
53875;SDS011;39789;53.216;5.624;2023-03-29T06:22:25;19.70;;;11.02;;
53875;SDS011;39789;53.216;5.624;2023-03-29T06:24:53;15.05;;;9.70;;
53875;SDS011;39789;53.216;5.624;2023-03-29T06:27:19;14.45;;;10.23;;
53875;SDS011;39789;53.216;5.624;2023-03-29T06:29:45;14.93;;;10.55;;
53875;SDS011;39789;53.216;5.624;2023-03-29T06:32:12;15.27;;;10.65;;
53875;SDS011;39789;53.216;5.624;2023-03-29T06:34:40;15.15;;;10.27;;
53875;SDS011;39789;53.216;5.624;2023-03-29T06:37:09;17.20;;;11.27;;
53875;SDS011;39789;53.216;5.624;2023-03-29T06:39:35;19.02;;;11.48;;
53875;SDS011;39789;53.216;5.624;2023-03-29T06:42:00;15.73;;;10.68;;
53875;SDS011;39789;53.216;5.624;2023-03-29T06:44:26;16.58;;;11.18;;
53875;SDS011;39789;53.216;5.624;2023-03-29T06:46:52;14.07;;;10.27;;
53875;SDS011;39789;53.216;5.624;2023-03-29T06:49:21;13.43;;;10.40;;
53875;SDS011;39789;53.216;5.624;2023-03-29T06:51:47;14.98;;;10.48;;
53875;SDS011;39789;53.216;5.624;2023-03-29T06:54:12;14.77;;;10.52;;
53875;SDS011;39789;53.216;5.624;2023-03-29T06:56:38;16.40;;;11.88;;
53875;SDS011;39789;53.216;5.624;2023-03-29T06:59:06;16.27;;;10.70;;
53875;SDS011;39789;53.216;5.624;2023-03-29T07:01:32;15.00;;;11.32;;
53875;SDS011;39789;53.216;5.624;2023-03-29T07:03:58;15.20;;;10.40;;
53875;SDS011;39789;53.216;5.624;2023-03-29T07:06:29;15.07;;;11.07;;
53875;SDS011;39789;53.216;5.624;2023-03-29T07:08:54;14.88;;;10.85;;
53875;SDS011;39789;53.216;5.624;2023-03-29T07:11:23;14.90;;;10.68;;
53875;SDS011;39789;53.216;5.624;2023-03-29T07:13:49;15.07;;;10.27;;
53875;SDS011;39789;53.216;5.624;2023-03-29T07:16:15;14.70;;;10.10;;
53875;SDS011;39789;53.216;5.624;2023-03-29T07:18:42;14.13;;;9.55;;
53875;SDS011;39789;53.216;5.624;2023-03-29T07:21:08;19.38;;;11.05;;
53875;SDS011;39789;53.216;5.624;2023-03-29T07:23:39;15.30;;;11.52;;
53875;SDS011;39789;53.216;5.624;2023-03-29T07:26:06;12.57;;;9.85;;
53875;SDS011;39789;53.216;5.624;2023-03-29T07:28:33;14.23;;;10.32;;
53875;SDS011;39789;53.216;5.624;2023-03-29T07:31:06;16.85;;;9.82;;
53875;SDS011;39789;53.216;5.624;2023-03-29T07:33:34;15.00;;;10.68;;
53875;SDS011;39789;53.216;5.624;2023-03-29T07:36:00;14.23;;;9.75;;
53875;SDS011;39789;53.216;5.624;2023-03-29T07:38:29;15.82;;;10.32;;
53875;SDS011;39789;53.216;5.624;2023-03-29T07:40:56;14.27;;;10.02;;
53875;SDS011;39789;53.216;5.624;2023-03-29T07:43:22;15.00;;;10.15;;
53875;SDS011;39789;53.216;5.624;2023-03-29T07:45:49;15.18;;;10.38;;
53875;SDS011;39789;53.216;5.624;2023-03-29T07:48:15;17.52;;;10.55;;
53875;SDS011;39789;53.216;5.624;2023-03-29T07:50:42;11.75;;;9.07;;
53875;SDS011;39789;53.216;5.624;2023-03-29T07:53:11;13.05;;;9.57;;
53875;SDS011;39789;53.216;5.624;2023-03-29T07:55:38;13.52;;;10.00;;
53875;SDS011;39789;53.216;5.624;2023-03-29T07:58:14;15.55;;;9.20;;
53875;SDS011;39789;53.216;5.624;2023-03-29T08:00:41;14.50;;;9.68;;
53875;SDS011;39789;53.216;5.624;2023-03-29T08:03:10;14.80;;;9.25;;
53875;SDS011;39789;53.216;5.624;2023-03-29T08:05:37;13.70;;;9.63;;
53875;SDS011;39789;53.216;5.624;2023-03-29T08:08:04;14.93;;;9.23;;
53875;SDS011;39789;53.216;5.624;2023-03-29T08:10:35;18.85;;;10.50;;
53875;SDS011;39789;53.216;5.624;2023-03-29T08:13:07;14.40;;;8.93;;
53875;SDS011;39789;53.216;5.624;2023-03-29T08:15:37;14.98;;;9.23;;
53875;SDS011;39789;53.216;5.624;2023-03-29T08:18:04;13.50;;;9.35;;
53875;SDS011;39789;53.216;5.624;2023-03-29T08:20:32;15.02;;;9.15;;
53875;SDS011;39789;53.216;5.624;2023-03-29T08:22:57;16.92;;;9.43;;
53875;SDS011;39789;53.216;5.624;2023-03-29T08:25:25;12.35;;;9.68;;
53875;SDS011;39789;53.216;5.624;2023-03-29T08:27:51;14.43;;;9.63;;
53875;SDS011;39789;53.216;5.624;2023-03-29T08:30:17;15.10;;;9.00;;
53875;SDS011;39789;53.216;5.624;2023-03-29T08:32:46;13.07;;;8.95;;
53875;SDS011;39789;53.216;5.624;2023-03-29T08:35:12;13.15;;;8.98;;
53875;SDS011;39789;53.216;5.624;2023-03-29T08:37:39;15.27;;;9.93;;
53875;SDS011;39789;53.216;5.624;2023-03-29T08:40:05;15.70;;;9.02;;
53875;SDS011;39789;53.216;5.624;2023-03-29T08:52:12;14.07;;;9.00;;
53875;SDS011;39789;53.216;5.624;2023-03-29T08:54:34;13.20;;;9.60;;
53875;SDS011;39789;53.216;5.624;2023-03-29T08:57:10;13.27;;;9.02;;
53875;SDS011;39789;53.216;5.624;2023-03-29T08:59:41;14.05;;;10.73;;
53875;SDS011;39789;53.216;5.624;2023-03-29T09:02:16;14.43;;;9.95;;
53875;SDS011;39789;53.216;5.624;2023-03-29T09:04:46;15.57;;;8.68;;
53875;SDS011;39789;53.216;5.624;2023-03-29T09:07:14;13.23;;;9.32;;
53875;SDS011;39789;53.216;5.624;2023-03-29T09:09:44;18.60;;;10.07;;
53875;SDS011;39789;53.216;5.624;2023-03-29T09:20:42;16.10;;;10.13;;
53875;SDS011;39789;53.216;5.624;2023-03-29T09:26:08;20.40;;;10.20;;
53875;SDS011;39789;53.216;5.624;2023-03-29T09:32:20;17.95;;;10.57;;
53875;SDS011;39789;53.216;5.624;2023-03-29T09:37:46;17.83;;;10.18;;
53875;SDS011;39789;53.216;5.624;2023-03-29T09:40:17;18.75;;;10.82;;
53875;SDS011;39789;53.216;5.624;2023-03-29T09:43:02;17.98;;;10.98;;
53875;SDS011;39789;53.216;5.624;2023-03-29T09:45:34;20.70;;;10.68;;
53875;SDS011;39789;53.216;5.624;2023-03-29T09:48:11;19.20;;;10.90;;
53875;SDS011;39789;53.216;5.624;2023-03-29T09:50:39;21.08;;;11.57;;
53875;SDS011;39789;53.216;5.624;2023-03-29T09:53:06;16.27;;;10.43;;
53875;SDS011;39789;53.216;5.624;2023-03-29T09:55:34;17.20;;;11.10;;
53875;SDS011;39789;53.216;5.624;2023-03-29T09:58:09;18.60;;;11.75;;
53875;SDS011;39789;53.216;5.624;2023-03-29T10:00:37;21.77;;;11.55;;
53875;SDS011;39789;53.216;5.624;2023-03-29T10:03:05;20.85;;;11.40;;
53875;SDS011;39789;53.216;5.624;2023-03-29T10:05:34;21.73;;;11.82;;
53875;SDS011;39789;53.216;5.624;2023-03-29T10:08:06;25.92;;;12.18;;
53875;SDS011;39789;53.216;5.624;2023-03-29T10:10:43;22.35;;;11.80;;
53875;SDS011;39789;53.216;5.624;2023-03-29T10:13:26;21.45;;;11.70;;
53875;SDS011;39789;53.216;5.624;2023-03-29T10:16:04;23.23;;;11.95;;
53875;SDS011;39789;53.216;5.624;2023-03-29T10:18:41;26.02;;;13.40;;
53875;SDS011;39789;53.216;5.624;2023-03-29T10:21:08;21.83;;;11.63;;
53875;SDS011;39789;53.216;5.624;2023-03-29T10:23:37;21.33;;;12.05;;
53875;SDS011;39789;53.216;5.624;2023-03-29T10:26:04;21.73;;;12.95;;
53875;SDS011;39789;53.216;5.624;2023-03-29T10:28:42;20.70;;;12.50;;
53875;SDS011;39789;53.216;5.624;2023-03-29T10:31:08;20.48;;;13.30;;
53875;SDS011;39789;53.216;5.624;2023-03-29T10:33:44;22.08;;;12.60;;
53875;SDS011;39789;53.216;5.624;2023-03-29T10:36:20;21.27;;;12.65;;
53875;SDS011;39789;53.216;5.624;2023-03-29T10:38:47;23.33;;;12.32;;
53875;SDS011;39789;53.216;5.624;2023-03-29T10:41:16;17.70;;;12.88;;
53875;SDS011;39789;53.216;5.624;2023-03-29T10:43:44;21.55;;;13.50;;
53875;SDS011;39789;53.216;5.624;2023-03-29T10:49:03;19.25;;;12.73;;
53875;SDS011;39789;53.216;5.624;2023-03-29T10:51:34;20.90;;;13.30;;
53875;SDS011;39789;53.216;5.624;2023-03-29T10:54:00;22.35;;;12.98;;
53875;SDS011;39789;53.216;5.624;2023-03-29T11:11:01;22.88;;;14.68;;
53875;SDS011;39789;53.216;5.624;2023-03-29T11:19:01;25.55;;;15.38;;
53875;SDS011;39789;53.216;5.624;2023-03-29T11:32:17;21.60;;;14.75;;
53875;SDS011;39789;53.216;5.624;2023-03-29T11:38:41;31.88;;;18.30;;
53875;SDS011;39789;53.216;5.624;2023-03-29T11:41:29;29.65;;;17.90;;
53875;SDS011;39789;53.216;5.624;2023-03-29T11:44:32;31.50;;;18.10;;
53875;SDS011;39789;53.216;5.624;2023-03-29T11:46:56;24.48;;;16.70;;
53875;SDS011;39789;53.216;5.624;2023-03-29T11:49:32;27.08;;;16.85;;
53875;SDS011;39789;53.216;5.624;2023-03-29T11:52:09;28.23;;;17.52;;
53875;SDS011;39789;53.216;5.624;2023-03-29T11:57:50;24.80;;;16.20;;
53875;SDS011;39789;53.216;5.624;2023-03-29T12:00:35;27.02;;;16.40;;
53875;SDS011;39789;53.216;5.624;2023-03-29T12:03:16;26.83;;;16.05;;
53875;SDS011;39789;53.216;5.624;2023-03-29T12:06:14;27.58;;;16.88;;
53875;SDS011;39789;53.216;5.624;2023-03-29T12:08:43;27.92;;;17.33;;
53875;SDS011;39789;53.216;5.624;2023-03-29T12:11:33;27.75;;;17.50;;
53875;SDS011;39789;53.216;5.624;2023-03-29T12:16:56;28.15;;;18.02;;
53875;SDS011;39789;53.216;5.624;2023-03-29T12:19:42;26.45;;;18.23;;
53875;SDS011;39789;53.216;5.624;2023-03-29T12:22:17;29.80;;;16.25;;
53875;SDS011;39789;53.216;5.624;2023-03-29T12:24:43;26.60;;;17.83;;
53875;SDS011;39789;53.216;5.624;2023-03-29T12:27:24;28.90;;;18.08;;
53875;SDS011;39789;53.216;5.624;2023-03-29T12:38:21;27.17;;;17.70;;
53875;SDS011;39789;53.216;5.624;2023-03-29T12:40:54;23.48;;;17.05;;
53875;SDS011;39789;53.216;5.624;2023-03-29T12:43:25;23.30;;;18.10;;
53875;SDS011;39789;53.216;5.624;2023-03-29T12:48:43;27.23;;;20.95;;
53875;SDS011;39789;53.216;5.624;2023-03-29T12:51:21;26.90;;;20.60;;
53875;SDS011;39789;53.216;5.624;2023-03-29T12:53:53;35.35;;;23.73;;
53875;SDS011;39789;53.216;5.624;2023-03-29T12:56:38;26.40;;;21.88;;
53875;SDS011;39789;53.216;5.624;2023-03-29T13:02:17;26.88;;;20.02;;
53875;SDS011;39789;53.216;5.624;2023-03-29T13:09:52;26.30;;;18.77;;
53875;SDS011;39789;53.216;5.624;2023-03-29T13:12:34;26.85;;;18.23;;
53875;SDS011;39789;53.216;5.624;2023-03-29T13:15:05;21.40;;;15.80;;
53875;SDS011;39789;53.216;5.624;2023-03-29T13:20:42;26.13;;;15.80;;
53875;SDS011;39789;53.216;5.624;2023-03-29T13:28:54;18.77;;;15.20;;
53875;SDS011;39789;53.216;5.624;2023-03-29T13:31:31;20.05;;;15.05;;
53875;SDS011;39789;53.216;5.624;2023-03-29T13:37:07;22.40;;;16.27;;
53875;SDS011;39789;53.216;5.624;2023-03-29T13:39:51;19.00;;;14.98;;
53875;SDS011;39789;53.216;5.624;2023-03-29T13:44:45;20.50;;;16.13;;
53875;SDS011;39789;53.216;5.624;2023-03-29T13:50:02;23.20;;;16.15;;
53875;SDS011;39789;53.216;5.624;2023-03-29T13:52:39;19.73;;;14.15;;
53875;SDS011;39789;53.216;5.624;2023-03-29T13:57:40;17.88;;;15.38;;
53875;SDS011;39789;53.216;5.624;2023-03-29T14:00:14;26.60;;;18.25;;
53875;SDS011;39789;53.216;5.624;2023-03-29T14:02:49;24.60;;;19.13;;
53875;SDS011;39789;53.216;5.624;2023-03-29T14:05:22;27.10;;;20.70;;
53875;SDS011;39789;53.216;5.624;2023-03-29T14:07:53;30.13;;;21.48;;
53875;SDS011;39789;53.216;5.624;2023-03-29T14:10:26;27.63;;;21.45;;
53875;SDS011;39789;53.216;5.624;2023-03-29T14:12:58;28.13;;;21.13;;
53875;SDS011;39789;53.216;5.624;2023-03-29T14:15:26;29.17;;;20.92;;
53875;SDS011;39789;53.216;5.624;2023-03-29T14:18:00;28.85;;;21.00;;
53875;SDS011;39789;53.216;5.624;2023-03-29T14:20:26;28.75;;;20.15;;
53875;SDS011;39789;53.216;5.624;2023-03-29T14:22:52;26.83;;;18.73;;
53875;SDS011;39789;53.216;5.624;2023-03-29T14:25:18;23.83;;;18.00;;
53875;SDS011;39789;53.216;5.624;2023-03-29T14:27:47;25.35;;;18.85;;
53875;SDS011;39789;53.216;5.624;2023-03-29T14:30:26;28.40;;;20.13;;
53875;SDS011;39789;53.216;5.624;2023-03-29T14:32:53;28.40;;;20.77;;
53875;SDS011;39789;53.216;5.624;2023-03-29T14:35:26;24.30;;;19.85;;
53875;SDS011;39789;53.216;5.624;2023-03-29T14:37:55;29.75;;;20.52;;
53875;SDS011;39789;53.216;5.624;2023-03-29T14:40:21;33.40;;;21.80;;
53875;SDS011;39789;53.216;5.624;2023-03-29T14:42:51;25.95;;;21.45;;
53875;SDS011;39789;53.216;5.624;2023-03-29T14:45:19;30.63;;;22.58;;
53875;SDS011;39789;53.216;5.624;2023-03-29T14:47:47;28.17;;;21.55;;
53875;SDS011;39789;53.216;5.624;2023-03-29T14:50:22;27.40;;;20.85;;
53875;SDS011;39789;53.216;5.624;2023-03-29T14:52:53;25.27;;;21.40;;
53875;SDS011;39789;53.216;5.624;2023-03-29T14:55:22;30.00;;;22.15;;
53875;SDS011;39789;53.216;5.624;2023-03-29T14:57:54;31.23;;;22.98;;
53875;SDS011;39789;53.216;5.624;2023-03-29T15:00:26;29.65;;;21.23;;
53875;SDS011;39789;53.216;5.624;2023-03-29T15:03:02;29.98;;;21.65;;
53875;SDS011;39789;53.216;5.624;2023-03-29T15:05:37;24.90;;;21.05;;
53875;SDS011;39789;53.216;5.624;2023-03-29T15:08:07;26.20;;;20.98;;
53875;SDS011;39789;53.216;5.624;2023-03-29T15:10:37;25.52;;;19.17;;
53875;SDS011;39789;53.216;5.624;2023-03-29T15:13:04;25.20;;;18.48;;
53875;SDS011;39789;53.216;5.624;2023-03-29T15:15:32;22.90;;;19.02;;
53875;SDS011;39789;53.216;5.624;2023-03-29T15:18:01;23.70;;;17.60;;
53875;SDS011;39789;53.216;5.624;2023-03-29T15:20:33;22.58;;;16.63;;
53875;SDS011;39789;53.216;5.624;2023-03-29T15:26:04;18.10;;;15.27;;
53875;SDS011;39789;53.216;5.624;2023-03-29T15:29:04;20.08;;;16.60;;
53875;SDS011;39789;53.216;5.624;2023-03-29T15:31:52;20.13;;;15.80;;
53875;SDS011;39789;53.216;5.624;2023-03-29T15:34:27;21.33;;;16.37;;
53875;SDS011;39789;53.216;5.624;2023-03-29T15:36:54;21.00;;;16.15;;
53875;SDS011;39789;53.216;5.624;2023-03-29T15:39:23;20.38;;;16.33;;
53875;SDS011;39789;53.216;5.624;2023-03-29T15:41:51;19.23;;;15.40;;
53875;SDS011;39789;53.216;5.624;2023-03-29T15:44:27;19.60;;;15.80;;
53875;SDS011;39789;53.216;5.624;2023-03-29T15:46:56;20.70;;;16.58;;
53875;SDS011;39789;53.216;5.624;2023-03-29T15:49:23;23.52;;;16.20;;
53875;SDS011;39789;53.216;5.624;2023-03-29T15:51:50;22.73;;;16.48;;
53875;SDS011;39789;53.216;5.624;2023-03-29T15:54:18;23.77;;;16.92;;
53875;SDS011;39789;53.216;5.624;2023-03-29T15:56:55;21.95;;;17.02;;
53875;SDS011;39789;53.216;5.624;2023-03-29T15:59:25;23.50;;;16.67;;
53875;SDS011;39789;53.216;5.624;2023-03-29T16:01:51;20.73;;;17.00;;
53875;SDS011;39789;53.216;5.624;2023-03-29T16:04:19;23.88;;;17.48;;
53875;SDS011;39789;53.216;5.624;2023-03-29T16:06:46;28.65;;;17.65;;
53875;SDS011;39789;53.216;5.624;2023-03-29T16:09:14;23.40;;;16.50;;
53875;SDS011;39789;53.216;5.624;2023-03-29T16:11:41;25.50;;;17.05;;
53875;SDS011;39789;53.216;5.624;2023-03-29T16:14:15;22.80;;;17.60;;
53875;SDS011;39789;53.216;5.624;2023-03-29T16:16:51;33.20;;;18.85;;
53875;SDS011;39789;53.216;5.624;2023-03-29T16:19:19;25.40;;;18.13;;
53875;SDS011;39789;53.216;5.624;2023-03-29T16:21:45;25.15;;;18.20;;
53875;SDS011;39789;53.216;5.624;2023-03-29T16:24:13;27.67;;;19.55;;
53875;SDS011;39789;53.216;5.624;2023-03-29T16:26:43;27.58;;;19.33;;
53875;SDS011;39789;53.216;5.624;2023-03-29T16:29:09;24.52;;;18.92;;
53875;SDS011;39789;53.216;5.624;2023-03-29T16:31:35;28.23;;;18.77;;
53875;SDS011;39789;53.216;5.624;2023-03-29T16:34:01;26.25;;;19.67;;
53875;SDS011;39789;53.216;5.624;2023-03-29T16:36:27;27.40;;;19.90;;
53875;SDS011;39789;53.216;5.624;2023-03-29T16:38:57;28.58;;;19.90;;
53875;SDS011;39789;53.216;5.624;2023-03-29T16:41:24;30.20;;;20.58;;
53875;SDS011;39789;53.216;5.624;2023-03-29T16:43:51;27.48;;;20.20;;
53875;SDS011;39789;53.216;5.624;2023-03-29T16:46:16;30.58;;;21.35;;
53875;SDS011;39789;53.216;5.624;2023-03-29T16:48:42;32.60;;;20.63;;
53875;SDS011;39789;53.216;5.624;2023-03-29T16:51:08;27.38;;;20.73;;
53875;SDS011;39789;53.216;5.624;2023-03-29T16:53:34;28.42;;;19.35;;
53875;SDS011;39789;53.216;5.624;2023-03-29T16:56:00;31.80;;;21.08;;